Time;durP1;ratioP1;P1;durP2;ratioP2;P2;SDS_P1;SDS_P2;PMS_P1;PMS_P2;Temp;Humidity;BMP_temperature;BMP_pressure;BME280_temperature;BME280_humidity;BME280_pressure;Samples;Min_cycle;Max_cycle;Signal;HPM_P1;HPM_P2
2021/09/08 00:00:10;;;;;;;25.98;14.20;;;;;;;19.42;63.72;101898.03;4992853;28;20501;-61
2021/09/08 00:03:00;;;;;;;17.20;12.27;;;;;;;19.42;63.71;101898.84;4991552;28;20043;-62
2021/09/08 00:05:50;;;;;;;23.95;14.85;;;;;;;19.41;63.65;101888.91;4989095;28;20034;-62
2021/09/08 00:08:38;;;;;;;20.40;15.10;;;;;;;19.35;63.72;101890.94;4991687;28;20424;-60
2021/09/08 00:11:25;;;;;;;23.02;13.98;;;;;;;19.31;63.96;101889.06;4992816;28;20046;-62
2021/09/08 00:14:13;;;;;;;20.90;13.45;;;;;;;19.32;64.10;101879.66;4989450;28;20049;-62
2021/09/08 00:17:01;;;;;;;17.95;13.18;;;;;;;19.35;63.84;101881.81;4991419;28;20497;-62
2021/09/08 00:19:48;;;;;;;18.48;13.07;;;;;;;19.36;63.69;101880.69;4979379;28;20046;-62
2021/09/08 00:22:36;;;;;;;22.00;14.38;;;;;;;19.30;63.75;101874.44;4991696;28;20070;-62
2021/09/08 00:25:24;;;;;;;23.65;14.32;;;;;;;19.22;64.08;101877.03;4992515;28;20042;-61
2021/09/08 00:28:11;;;;;;;18.05;13.88;;;;;;;19.17;64.24;101877.97;4991689;28;20059;-62
2021/09/08 00:30:59;;;;;;;19.95;14.13;;;;;;;19.12;64.12;101870.59;4992392;28;20820;-61
2021/09/08 00:33:47;;;;;;;22.38;14.95;;;;;;;19.10;64.41;101861.78;4992220;28;20050;-62
2021/09/08 00:36:35;;;;;;;20.15;13.68;;;;;;;19.07;64.36;101862.38;4990377;28;20046;-62
2021/09/08 00:39:23;;;;;;;19.25;13.32;;;;;;;19.09;64.53;101860.13;4991127;28;20560;-61
2021/09/08 00:42:11;;;;;;;18.85;13.13;;;;;;;19.11;64.22;101852.34;4985933;28;20082;-61
2021/09/08 00:45:01;;;;;;;17.92;12.18;;;;;;;19.13;64.26;101861.16;4985340;28;20039;-58
2021/09/08 00:47:50;;;;;;;18.08;13.25;;;;;;;19.16;63.90;101855.03;4995607;28;20066;-61
2021/09/08 00:50:38;;;;;;;17.17;12.88;;;;;;;19.14;63.88;101854.50;4995313;28;20485;-62
2021/09/08 00:53:25;;;;;;;20.95;14.00;;;;;;;19.11;63.90;101859.81;4993844;28;20085;-62
2021/09/08 00:56:16;;;;;;;22.40;13.82;;;;;;;19.09;63.99;101854.59;4993996;28;20503;-61
2021/09/08 00:59:04;;;;;;;19.73;13.85;;;;;;;19.04;64.25;101856.63;4996099;28;20412;-62
2021/09/08 01:01:58;;;;;;;20.30;14.05;;;;;;;18.99;64.10;101854.75;4994479;28;20055;-62
2021/09/08 01:04:48;;;;;;;20.48;13.13;;;;;;;18.94;64.47;101855.66;4996383;28;20432;-62
2021/09/08 01:07:39;;;;;;;18.58;12.48;;;;;;;18.93;64.63;101856.78;4996020;28;20126;-62
2021/09/08 01:10:29;;;;;;;20.70;13.60;;;;;;;18.97;64.64;101854.22;4994922;28;20089;-61
2021/09/08 01:13:17;;;;;;;20.30;12.65;;;;;;;18.99;64.32;101853.94;4995470;28;20039;-62
2021/09/08 01:16:05;;;;;;;21.95;13.48;;;;;;;18.96;64.41;101849.03;4990104;28;20128;-62
2021/09/08 01:18:53;;;;;;;18.80;12.35;;;;;;;18.88;64.36;101851.34;4987198;28;20047;-62
2021/09/08 01:21:41;;;;;;;16.45;12.25;;;;;;;18.87;64.51;101843.34;4983968;28;20125;-62
2021/09/08 01:24:29;;;;;;;22.15;14.43;;;;;;;18.80;64.70;101840.13;4992278;28;20046;-62
2021/09/08 01:27:16;;;;;;;19.10;13.93;;;;;;;18.72;64.97;101834.13;4995999;28;20050;-59
2021/09/08 01:30:04;;;;;;;15.52;11.77;;;;;;;18.69;65.23;101833.94;4962946;28;20565;-62
2021/09/08 01:32:52;;;;;;;18.77;14.30;;;;;;;18.71;64.96;101834.44;4972231;28;20046;-62
2021/09/08 01:35:39;;;;;;;18.23;12.68;;;;;;;18.73;65.23;101837.72;4972722;28;20512;-62
2021/09/08 01:38:27;;;;;;;20.48;13.20;;;;;;;18.74;65.12;101834.66;4961042;28;20062;-62
2021/09/08 01:41:15;;;;;;;20.77;13.25;;;;;;;18.82;65.32;101835.16;4974747;28;20058;-62
2021/09/08 01:44:03;;;;;;;20.58;13.52;;;;;;;18.88;64.99;101833.94;4970063;28;20047;-63
2021/09/08 01:46:52;;;;;;;21.10;14.00;;;;;;;18.86;64.59;101830.69;4973025;28;20517;-62
2021/09/08 01:49:40;;;;;;;18.52;12.82;;;;;;;18.80;65.12;101834.63;4973983;28;20170;-62
2021/09/08 01:52:30;;;;;;;20.35;13.82;;;;;;;18.76;65.19;101830.78;4973117;28;20055;-62
2021/09/08 01:55:18;;;;;;;19.80;13.40;;;;;;;18.69;65.16;101823.69;4971057;28;20070;-62
2021/09/08 01:58:06;;;;;;;22.52;12.75;;;;;;;18.64;65.58;101826.53;4960168;28;20055;-61
2021/09/08 02:00:54;;;;;;;18.55;13.65;;;;;;;18.62;65.60;101826.00;4970005;28;20050;-61
2021/09/08 02:03:42;;;;;;;20.13;14.52;;;;;;;18.62;65.60;101826.00;4957752;28;20458;-63
2021/09/08 02:06:30;;;;;;;18.42;13.10;;;;;;;18.56;65.87;101820.84;4972415;28;20055;-61
2021/09/08 02:09:19;;;;;;;21.77;14.75;;;;;;;18.53;66.00;101823.09;4972746;28;20050;-61
2021/09/08 02:12:07;;;;;;;21.13;14.70;;;;;;;18.49;66.04;101815.69;4975950;28;20073;-62
2021/09/08 02:14:55;;;;;;;20.23;13.80;;;;;;;18.46;66.13;101828.16;4970493;28;20046;-61
2021/09/08 02:17:43;;;;;;;20.92;14.35;;;;;;;18.41;66.44;101824.66;4968498;28;20206;-62
2021/09/08 02:20:31;;;;;;;17.55;12.63;;;;;;;18.39;66.35;101824.13;4973891;28;20507;-61
2021/09/08 02:23:18;;;;;;;20.88;14.40;;;;;;;18.37;66.71;101820.84;4972991;28;20047;-62
2021/09/08 02:26:06;;;;;;;24.00;14.90;;;;;;;18.37;66.67;101820.84;4973699;28;20065;-62
2021/09/08 02:28:54;;;;;;;21.65;15.02;;;;;;;18.34;66.80;101816.72;4984164;28;20054;-61
2021/09/08 02:31:42;;;;;;;22.50;15.48;;;;;;;18.26;67.02;101807.19;4989681;28;20049;-61
2021/09/08 02:34:31;;;;;;;23.33;15.70;;;;;;;18.22;67.33;101808.88;4987405;28;20058;-61
2021/09/08 02:37:18;;;;;;;20.85;13.20;;;;;;;18.25;67.17;101804.72;4992710;28;20043;-61
2021/09/08 02:40:07;;;;;;;20.85;14.57;;;;;;;18.29;66.90;101803.81;4992500;28;20053;-62
2021/09/08 02:42:55;;;;;;;22.60;15.07;;;;;;;18.33;66.69;101803.22;4989561;28;20042;-62
2021/09/08 02:45:42;;;;;;;18.42;13.07;;;;;;;18.31;66.86;101796.06;4979306;28;20046;-62
2021/09/08 02:48:34;;;;;;;21.17;13.45;;;;;;;18.38;67.00;101792.13;4979095;28;20535;-62
2021/09/08 02:51:22;;;;;;;22.83;14.68;;;;;;;18.42;66.44;101784.88;4990452;28;20054;-62
2021/09/08 02:54:10;;;;;;;22.33;13.88;;;;;;;18.39;66.62;101796.53;4991488;28;20157;-63
2021/09/08 02:56:57;;;;;;;21.00;13.75;;;;;;;18.36;66.64;101792.44;4979888;28;20050;-62
2021/09/08 02:59:45;;;;;;;18.30;13.45;;;;;;;18.31;66.86;101789.75;4991083;28;20050;-62
2021/09/08 03:02:34;;;;;;;20.52;13.98;;;;;;;18.25;66.99;101786.22;4990891;28;20046;-61
2021/09/08 03:05:23;;;;;;;19.95;14.57;;;;;;;18.24;67.06;101781.81;4979953;28;20057;-62
2021/09/08 03:08:11;;;;;;;21.17;13.40;;;;;;;18.25;67.14;101785.41;4990796;28;20047;-62
2021/09/08 03:10:59;;;;;;;18.15;11.82;;;;;;;18.29;66.96;101790.03;4991570;28;20409;-61
2021/09/08 03:13:46;;;;;;;23.17;15.25;;;;;;;18.31;66.78;101792.50;4977670;28;20532;-62
2021/09/08 03:16:35;;;;;;;20.45;14.18;;;;;;;18.22;66.92;101791.50;4977349;28;20417;-59
2021/09/08 03:19:23;;;;;;;19.42;13.23;;;;;;;18.15;67.17;101785.53;4991188;28;20034;-62
2021/09/08 03:22:11;;;;;;;18.67;13.52;;;;;;;18.10;67.44;101789.19;4990628;28;20049;-61
2021/09/08 03:24:58;;;;;;;17.63;12.68;;;;;;;18.09;67.51;101782.03;4992158;28;20050;-62
2021/09/08 03:27:46;;;;;;;19.73;13.48;;;;;;;18.08;67.34;101781.19;4989549;28;20126;-61
2021/09/08 03:30:34;;;;;;;17.80;11.70;;;;;;;18.01;67.81;101782.66;4988062;28;20050;-61
2021/09/08 03:33:22;;;;;;;20.42;14.45;;;;;;;18.01;67.63;101779.91;4981650;28;20062;-62
2021/09/08 03:36:10;;;;;;;20.50;13.95;;;;;;;17.98;67.80;101786.03;4990372;28;20046;-62
2021/09/08 03:38:58;;;;;;;22.70;14.70;;;;;;;17.95;67.84;101783.88;4991414;28;20054;-62
2021/09/08 03:41:47;;;;;;;22.00;15.23;;;;;;;17.88;68.06;101775.94;4991033;28;20563;-62
2021/09/08 03:44:36;;;;;;;22.77;14.65;;;;;;;17.85;68.48;101771.03;4991640;28;20050;-62
2021/09/08 03:47:24;;;;;;;21.02;15.35;;;;;;;17.85;68.19;101776.53;4990962;28;20529;-62
2021/09/08 03:50:12;;;;;;;20.90;13.93;;;;;;;17.86;68.18;101778.16;4991052;28;20050;-63
2021/09/08 03:53:00;;;;;;;20.88;13.57;;;;;;;17.88;68.08;101770.44;4991658;28;20533;-63
2021/09/08 03:55:48;;;;;;;24.63;15.50;;;;;;;17.84;68.30;101764.66;4990607;28;20428;-62
2021/09/08 03:58:37;;;;;;;19.95;13.73;;;;;;;17.81;68.53;101762.50;4990190;28;20050;-62
2021/09/08 04:01:24;;;;;;;19.40;14.00;;;;;;;17.82;68.45;101766.94;4990906;28;20851;-62
2021/09/08 04:04:13;;;;;;;20.58;14.32;;;;;;;17.82;68.35;101763.31;4989132;28;20140;-63
2021/09/08 04:07:05;;;;;;;24.00;15.02;;;;;;;17.74;68.65;101758.44;4978642;28;20038;-62
2021/09/08 04:09:53;;;;;;;22.05;14.15;;;;;;;17.68;69.08;101765.94;4990578;28;20061;-58
2021/09/08 04:12:42;;;;;;;25.38;15.75;;;;;;;17.62;69.00;101756.09;4991154;28;20050;-63
2021/09/08 04:15:30;;;;;;;28.77;15.93;;;;;;;17.56;69.36;101752.56;4988683;28;20051;-62
2021/09/08 04:18:35;;;;;;;;;;;;;;;17.54;69.45;101743.78;4990404;28;20042;-62
2021/09/08 04:21:24;;;;;;;22.58;15.07;;;;;;;17.50;69.36;101750.16;4991936;28;19921;-63
2021/09/08 04:24:12;;;;;;;23.13;15.48;;;;;;;17.45;69.66;101740.00;4995224;28;20042;-62
2021/09/08 04:26:59;;;;;;;24.55;15.77;;;;;;;17.43;69.87;101743.06;4990573;28;20493;-62
2021/09/08 04:29:47;;;;;;;26.52;16.13;;;;;;;17.43;69.64;101747.75;4983643;28;20051;-62
2021/09/08 04:32:35;;;;;;;21.23;14.50;;;;;;;17.41;69.74;101742.53;4990528;28;20053;-62
2021/09/08 04:35:23;;;;;;;21.88;15.88;;;;;;;17.41;70.06;101742.53;4995191;28;20062;-62
2021/09/08 04:38:11;;;;;;;23.48;14.90;;;;;;;17.40;70.02;101742.81;4988822;28;20077;-62
2021/09/08 04:40:59;;;;;;;21.73;14.63;;;;;;;17.43;70.24;101742.22;4992387;28;20508;-62
2021/09/08 04:43:47;;;;;;;20.55;14.07;;;;;;;17.41;70.04;101742.53;4993470;28;20047;-62
2021/09/08 04:46:35;;;;;;;24.80;16.48;;;;;;;17.38;70.13;101745.84;4987399;28;20050;-62
2021/09/08 04:49:23;;;;;;;21.92;15.18;;;;;;;17.33;70.10;101745.09;4989335;28;20051;-62
2021/09/08 04:52:10;;;;;;;25.48;15.55;;;;;;;17.31;70.48;101748.13;4987512;28;20505;-62
2021/09/08 04:54:59;;;;;;;26.00;16.17;;;;;;;17.30;70.44;101749.25;4989985;28;20057;-62
2021/09/08 04:57:47;;;;;;;21.35;15.98;;;;;;;17.25;70.43;101744.63;4993928;28;20050;-62
2021/09/08 05:00:35;;;;;;;26.48;15.15;;;;;;;17.24;70.78;101739.41;4993349;28;20053;-61
2021/09/08 05:03:23;;;;;;;21.77;14.52;;;;;;;17.23;70.54;101744.09;4992991;28;20420;-58
2021/09/08 05:06:11;;;;;;;21.75;15.20;;;;;;;17.20;70.91;101755.69;4997953;28;20061;-61
2021/09/08 05:08:59;;;;;;;24.88;15.30;;;;;;;17.19;71.24;101747.72;4986885;28;20054;-61
2021/09/08 05:11:46;;;;;;;21.23;14.65;;;;;;;17.18;71.04;101746.09;4988654;28;20047;-61
2021/09/08 05:14:34;;;;;;;24.55;16.45;;;;;;;17.20;70.90;101735.59;4994191;28;20057;-62
2021/09/08 05:17:22;;;;;;;27.08;16.60;;;;;;;17.16;71.05;101737.28;4986095;28;20541;-63
2021/09/08 05:20:10;;;;;;;25.73;15.13;;;;;;;17.15;71.10;101741.13;4994774;28;20054;-61
2021/09/08 05:22:58;;;;;;;25.75;16.50;;;;;;;17.13;71.44;101741.44;4990768;28;20042;-62
2021/09/08 05:25:46;;;;;;;22.30;14.70;;;;;;;17.15;71.50;101741.13;4978226;28;20129;-63
2021/09/08 05:28:34;;;;;;;28.27;16.75;;;;;;;17.16;71.24;101731.78;4994349;28;20134;-62
2021/09/08 05:31:22;;;;;;;23.25;13.63;;;;;;;17.17;71.33;101727.91;4981224;28;20469;-62
2021/09/08 05:34:10;;;;;;;25.75;15.45;;;;;;;17.23;71.28;101738.56;4993458;28;20043;-62
2021/09/08 05:36:58;;;;;;;28.10;17.17;;;;;;;17.22;71.09;101736.94;4991017;28;20600;-60
2021/09/08 05:39:46;;;;;;;26.15;15.73;;;;;;;17.23;71.31;101729.50;4978392;28;20077;-57
2021/09/08 05:42:34;;;;;;;26.38;15.05;;;;;;;17.24;71.40;101729.22;4992418;28;20144;-61
2021/09/08 05:45:24;;;;;;;24.70;14.23;;;;;;;17.25;71.26;101719.84;4993109;28;20030;-62
2021/09/08 05:48:12;;;;;;;24.17;14.43;;;;;;;17.33;71.36;101721.13;4992465;28;20860;-62
2021/09/08 05:51:01;;;;;;;25.15;13.15;;;;;;;17.38;71.33;101718.31;4992480;28;20043;-63
2021/09/08 05:53:49;;;;;;;25.45;13.90;;;;;;;17.45;71.12;101723.47;4983568;28;20125;-60
2021/09/08 05:56:37;;;;;;;22.10;13.35;;;;;;;17.48;71.16;101722.06;4991739;28;20053;-62
2021/09/08 05:59:24;;;;;;;25.27;16.30;;;;;;;17.44;70.82;101725.41;4993246;28;20046;-63
2021/09/08 06:02:12;;;;;;;23.42;13.77;;;;;;;17.44;70.89;101721.84;4985060;28;20064;-62
2021/09/08 06:05:01;;;;;;;31.08;19.90;;;;;;;17.51;70.89;101724.22;4991304;28;20441;-62
2021/09/08 06:07:49;;;;;;;34.97;19.08;;;;;;;17.53;70.73;101731.09;4989121;28;20055;-61
2021/09/08 06:10:37;;;;;;;27.25;17.45;;;;;;;17.58;70.53;101727.47;4991796;28;20054;-62
2021/09/08 06:13:24;;;;;;;25.80;13.77;;;;;;;17.64;70.56;101729.88;4989658;28;20093;-62
2021/09/08 06:16:12;;;;;;;24.70;17.85;;;;;;;17.68;70.69;101732.88;4988892;28;20039;-62
2021/09/08 06:19:00;;;;;;;21.63;14.43;;;;;;;17.70;70.44;101727.88;4980531;28;20042;-63
2021/09/08 06:21:48;;;;;;;23.17;13.90;;;;;;;17.69;70.49;101723.47;4992656;28;20054;-61
2021/09/08 06:24:36;;;;;;;35.92;20.88;;;;;;;17.71;70.34;101726.78;4991969;28;20051;-62
2021/09/08 06:27:24;;;;;;;28.73;19.70;;;;;;;17.73;70.73;101735.56;4993013;28;20046;-62
2021/09/08 06:30:12;;;;;;;33.05;16.50;;;;;;;17.72;70.24;101728.41;4991031;28;20043;-62
2021/09/08 06:33:00;;;;;;;22.88;14.07;;;;;;;17.70;70.41;101721.53;4988238;28;20513;-60
2021/09/08 06:35:49;;;;;;;25.38;16.80;;;;;;;17.70;70.56;101716.03;4985189;28;20061;-61
2021/09/08 06:38:37;;;;;;;22.98;14.32;;;;;;;17.75;70.25;101711.28;4986862;28;20068;-56
2021/09/08 06:41:25;;;;;;;25.58;14.52;;;;;;;17.78;70.22;101715.41;4988042;28;20121;-62
2021/09/08 06:44:14;;;;;;;28.17;14.90;;;;;;;17.83;70.53;101710.66;4986574;28;20046;-58
2021/09/08 06:47:02;;;;;;;25.02;15.38;;;;;;;17.85;70.34;101702.91;4991122;28;20050;-63
2021/09/08 06:49:51;;;;;;;28.25;17.60;;;;;;;17.90;70.03;101701.22;4989410;28;20069;-61
2021/09/08 06:52:39;;;;;;;23.80;14.40;;;;;;;17.96;70.04;101706.34;4989501;28;20058;-62
2021/09/08 06:55:27;;;;;;;40.80;26.00;;;;;;;18.00;69.81;101706.59;4991397;28;20141;-61
2021/09/08 06:58:15;;;;;;;21.17;15.13;;;;;;;17.98;69.72;101697.78;4991574;28;20524;-63
2021/09/08 07:01:03;;;;;;;25.88;15.75;;;;;;;18.00;69.80;101701.06;4991773;28;20100;-63
2021/09/08 07:03:51;;;;;;;21.70;14.02;;;;;;;17.99;69.69;101686.47;4991287;28;20501;-63
2021/09/08 07:06:39;;;;;;;27.27;16.08;;;;;;;18.06;70.16;101688.84;4985158;28;20072;-63
2021/09/08 07:09:27;;;;;;;22.95;14.13;;;;;;;18.06;69.67;101684.16;4984404;28;20069;-63
2021/09/08 07:12:15;;;;;;;24.80;13.95;;;;;;;18.10;69.92;101690.69;4981882;28;20058;-62
2021/09/08 07:15:03;;;;;;;30.35;16.77;;;;;;;18.12;69.69;101684.09;4980898;28;20046;-63
2021/09/08 07:17:52;;;;;;;18.73;11.38;;;;;;;18.19;70.12;101684.53;4985502;28;20045;-63
2021/09/08 07:20:41;;;;;;;23.40;14.52;;;;;;;18.18;69.49;101691.16;4981978;28;20055;-61
2021/09/08 07:23:29;;;;;;;27.13;13.85;;;;;;;18.19;69.67;101679.00;4985101;28;20050;-62
2021/09/08 07:26:17;;;;;;;25.35;16.35;;;;;;;18.23;69.44;101680.03;4985764;28;20058;-63
2021/09/08 07:29:06;;;;;;;28.05;14.82;;;;;;;18.29;69.51;101670.56;4986654;28;20402;-63
2021/09/08 07:31:57;;;;;;;25.05;15.93;;;;;;;18.28;69.45;101675.28;4983636;28;20073;-61
2021/09/08 07:34:45;;;;;;;31.50;17.60;;;;;;;18.33;69.69;101670.78;4992232;28;20062;-63
2021/09/08 07:37:33;;;;;;;28.27;16.83;;;;;;;18.36;69.75;101672.97;4984492;28;20054;-62
2021/09/08 07:40:21;;;;;;;36.72;15.95;;;;;;;18.40;69.97;101668.47;4988475;28;20050;-64
2021/09/08 07:43:09;;;;;;;26.35;16.92;;;;;;;18.46;69.76;101670.03;4988185;28;20627;-64
2021/09/08 07:45:57;;;;;;;22.73;15.93;;;;;;;18.49;69.61;101669.44;4985807;28;20390;-63
2021/09/08 07:48:45;;;;;;;26.23;16.48;;;;;;;18.53;69.49;101665.78;4985530;28;20582;-64
2021/09/08 07:51:33;;;;;;;30.45;17.88;;;;;;;18.59;69.05;101663.75;4990764;28;20050;-61
2021/09/08 07:54:21;;;;;;;25.40;15.80;;;;;;;18.60;68.63;101662.63;4986006;28;20038;-64
2021/09/08 07:57:09;;;;;;;26.23;14.70;;;;;;;18.63;68.94;101667.53;4989238;28;20054;-64
2021/09/08 08:00:17;;;;;;;31.73;17.65;;;;;;;18.66;69.12;101669.69;4990279;28;20042;-65
2021/09/08 08:03:05;;;;;;;25.95;15.85;;;;;;;18.71;68.92;101661.34;4998357;28;20043;-65
2021/09/08 08:05:53;;;;;;;27.15;16.80;;;;;;;18.72;68.87;101662.97;4989735;28;20041;-64
2021/09/08 08:08:41;;;;;;;25.98;15.80;;;;;;;18.76;69.06;101666.00;4992604;28;20149;-65
2021/09/08 08:11:29;;;;;;;24.48;15.82;;;;;;;18.78;68.90;101665.66;4994778;28;20053;-65
2021/09/08 08:14:17;;;;;;;27.15;17.35;;;;;;;18.82;68.71;101661.19;4993680;28;20046;-65
2021/09/08 08:17:05;;;;;;;26.33;16.70;;;;;;;18.87;68.59;101658.34;4994904;28;20054;-65
2021/09/08 08:19:53;;;;;;;29.33;17.67;;;;;;;18.93;68.74;101657.94;4983179;28;20097;-65
2021/09/08 08:22:43;;;;;;;31.05;17.80;;;;;;;18.96;68.93;101658.47;4987382;28;20054;-65
2021/09/08 08:25:31;;;;;;;30.10;18.58;;;;;;;19.00;68.63;101654.78;5005033;28;20058;-65
2021/09/08 08:28:19;;;;;;;29.00;17.08;;;;;;;19.03;68.46;101659.69;5001163;28;20145;-65
2021/09/08 08:31:07;;;;;;;26.17;15.50;;;;;;;19.05;68.40;101660.22;4993567;28;20080;-65
2021/09/08 08:33:55;;;;;;;27.42;15.63;;;;;;;19.10;68.67;101657.34;4987927;28;20390;-55
2021/09/08 08:36:43;;;;;;;26.65;18.08;;;;;;;19.13;68.63;101656.72;4979424;28;20052;-65
2021/09/08 08:39:31;;;;;;;30.48;17.85;;;;;;;19.21;68.79;101657.16;4980660;28;20157;-65
2021/09/08 08:42:27;;;;;;;24.35;16.45;;;;;;;19.27;68.55;101656.75;4984030;28;20046;-66
2021/09/08 08:45:15;;;;;;;22.83;14.32;;;;;;;19.33;68.40;101665.75;4991172;28;20061;-65
2021/09/08 08:48:04;;;;;;;22.77;14.07;;;;;;;19.36;68.33;101659.59;4990962;28;20412;-65
2021/09/08 08:50:52;;;;;;;23.70;14.77;;;;;;;19.40;67.99;101657.88;4989884;28;20046;-66
2021/09/08 08:53:41;;;;;;;25.52;17.60;;;;;;;19.44;68.50;101655.31;4979499;28;20065;-67
2021/09/08 08:56:28;;;;;;;25.92;17.13;;;;;;;19.48;68.14;101657.16;4989835;28;20516;-60
2021/09/08 08:59:16;;;;;;;24.88;16.50;;;;;;;19.55;68.11;101660.34;4990217;28;20050;-67
2021/09/08 09:02:36;;;;;;;27.50;14.77;;;;;;;19.64;67.60;101656.84;4989671;28;20125;-64
2021/09/08 09:05:39;;;;;;;24.73;17.35;;;;;;;19.66;67.54;101658.16;4968191;28;20055;-65
2021/09/08 09:08:34;;;;;;;21.77;14.68;;;;;;;19.73;67.70;101655.00;4973676;28;20443;-65
2021/09/08 09:11:23;;;;;;;26.83;15.38;;;;;;;19.78;67.75;101649.38;4972678;28;20137;-65
2021/09/08 09:14:12;;;;;;;23.75;13.38;;;;;;;19.82;67.18;101650.41;4972223;28;20062;-64
2021/09/08 09:17:00;;;;;;;23.48;15.35;;;;;;;19.83;67.45;101649.25;4970959;28;20050;-65
2021/09/08 09:19:49;;;;;;;24.58;16.42;;;;;;;19.88;67.18;101643.59;4973494;28;20062;-66
2021/09/08 09:22:41;;;;;;;23.00;14.13;;;;;;;19.92;66.93;101639.09;4972965;28;20062;-65
2021/09/08 09:25:36;;;;;;;33.22;17.80;;;;;;;19.97;67.35;101638.97;4972547;28;20066;-64
2021/09/08 09:28:29;;;;;;;25.75;16.50;;;;;;;20.08;67.07;101635.97;4960390;28;20043;-65
2021/09/08 09:31:20;;;;;;;27.88;18.52;;;;;;;20.17;66.71;101632.13;4971646;28;20051;-65
2021/09/08 09:34:10;;;;;;;24.95;17.20;;;;;;;20.22;65.99;101632.00;4971790;28;20462;-65
2021/09/08 09:36:59;;;;;;;17.40;11.10;;;;;;;20.27;65.90;101631.06;4976659;28;20039;-65
2021/09/08 09:39:47;;;;;;;26.70;17.75;;;;;;;20.29;65.88;101633.53;4966895;28;20065;-65
2021/09/08 09:42:39;;;;;;;25.58;16.02;;;;;;;20.31;66.55;101626.56;4960927;28;20130;-64
2021/09/08 09:45:07;;;;;;;22.00;14.32;;;;;;;20.36;66.28;101620.88;4975188;28;20046;-65
2021/09/08 09:47:38;;;;;;;28.60;19.15;;;;;;;20.41;66.01;101619.94;4975381;28;20506;-64
2021/09/08 09:51:10;;;;;;;24.48;14.98;;;;;;;20.49;65.77;101619.16;4969350;28;20045;-65
2021/09/08 09:53:39;;;;;;;23.23;13.38;;;;;;;20.49;65.67;101613.63;4976814;28;20459;-65
2021/09/08 09:56:07;;;;;;;30.27;17.83;;;;;;;20.51;65.50;101621.63;4974884;28;20066;-64
2021/09/08 09:58:38;;;;;;;20.90;13.57;;;;;;;20.54;65.74;101615.44;4973791;28;20074;-65
2021/09/08 10:01:06;;;;;;;23.80;15.90;;;;;;;20.59;66.34;101616.19;4974624;28;20517;-63
2021/09/08 10:03:40;;;;;;;24.48;15.27;;;;;;;20.67;65.83;101608.25;4975354;28;20039;-62
2021/09/08 10:06:11;;;;;;;26.75;17.85;;;;;;;20.73;65.32;101607.78;4974951;28;20063;-63
2021/09/08 10:08:44;;;;;;;24.75;17.30;;;;;;;20.78;64.46;101602.13;4974034;28;20053;-61
2021/09/08 10:11:15;;;;;;;24.05;17.73;;;;;;;20.79;64.07;101598.22;4973366;28;20054;-63
2021/09/08 10:13:56;;;;;;;20.95;14.20;;;;;;;20.78;64.78;101599.34;4974433;28;20031;-63
2021/09/08 10:16:24;;;;;;;26.08;17.55;;;;;;;20.80;65.52;101596.25;4974858;28;20054;-62
2021/09/08 10:18:51;;;;;;;22.20;14.30;;;;;;;20.95;64.46;101589.47;4973705;28;20043;-63
2021/09/08 10:21:20;;;;;;;26.15;17.58;;;;;;;20.98;64.43;101586.88;4974358;28;20494;-63
2021/09/08 10:24:03;;;;;;;31.10;18.92;;;;;;;21.01;64.38;101579.88;4974907;28;20043;-66
2021/09/08 10:26:33;;;;;;;26.20;17.30;;;;;;;21.05;64.11;101565.06;4973806;28;20130;-64
2021/09/08 10:29:08;;;;;;;28.33;17.15;;;;;;;21.08;64.45;101565.56;4973966;28;20054;-62
2021/09/08 10:31:43;;;;;;;21.20;13.82;;;;;;;21.12;64.07;101564.63;4973065;28;20413;-62
2021/09/08 10:34:11;;;;;;;21.73;14.45;;;;;;;21.12;64.37;101556.28;4973465;28;20038;-64
2021/09/08 10:36:40;;;;;;;22.45;15.32;;;;;;;21.18;64.32;101552.22;4974500;28;20043;-65
2021/09/08 10:39:15;;;;;;;18.55;11.43;;;;;;;21.25;63.45;101549.78;4974306;28;20039;-62
2021/09/08 10:41:51;;;;;;;21.95;14.50;;;;;;;21.38;63.32;101553.59;4973951;28;20047;-64
2021/09/08 10:44:38;;;;;;;22.00;14.90;;;;;;;21.47;62.93;101548.06;4978268;28;20498;-63
2021/09/08 10:47:06;;;;;;;26.15;16.02;;;;;;;21.53;62.60;101552.34;4978826;28;20051;-65
2021/09/08 10:49:36;;;;;;;24.73;16.02;;;;;;;21.62;62.11;101549.53;4979327;28;20049;-64
2021/09/08 10:52:05;;;;;;;20.95;12.27;;;;;;;21.73;61.81;101544.50;4979222;28;20050;-64
2021/09/08 10:54:52;;;;;;;21.17;12.95;;;;;;;21.72;61.49;101545.63;4974723;28;20042;-64
2021/09/08 10:57:46;;;;;;;21.30;13.48;;;;;;;21.74;59.72;101535.03;4973856;28;20045;-64
2021/09/08 11:00:48;;;;;;;23.45;14.20;;;;;;;21.69;59.64;101534.06;4973975;28;20054;-64
2021/09/08 11:03:16;;;;;;;22.45;14.00;;;;;;;21.63;61.12;101532.59;4901424;29;20122;-64
2021/09/08 11:05:53;;;;;;;24.70;14.70;;;;;;;21.79;61.02;101527.38;4914218;29;20083;-64
2021/09/08 11:08:24;;;;;;;23.92;14.70;;;;;;;21.91;60.45;101518.38;4914138;29;20048;-64
2021/09/08 11:11:12;;;;;;;22.70;14.77;;;;;;;21.99;60.56;101520.34;4913747;29;20048;-64
2021/09/08 11:13:40;;;;;;;26.95;15.38;;;;;;;21.94;59.74;101523.28;4914475;29;20052;-64
2021/09/08 11:16:24;;;;;;;26.15;16.88;;;;;;;21.94;59.80;101519.69;4913912;29;20079;-63
2021/09/08 11:18:54;;;;;;;26.15;15.32;;;;;;;22.02;58.85;101508.56;4913865;29;20063;-64
2021/09/08 11:21:27;;;;;;;21.50;14.20;;;;;;;22.11;57.60;101517.69;4913697;29;20048;-62
2021/09/08 11:24:21;;;;;;;27.55;14.85;;;;;;;22.09;58.57;101503.34;4914110;29;20452;-64
2021/09/08 11:26:48;;;;;;;19.98;14.02;;;;;;;22.06;59.44;101504.00;4911337;29;20063;-60
2021/09/08 11:29:17;;;;;;;17.17;11.57;;;;;;;22.08;58.11;101507.25;4913293;29;20416;-64
2021/09/08 11:31:46;;;;;;;19.88;13.98;;;;;;;22.12;57.49;101501.84;4912748;29;20059;-64
2021/09/08 11:34:21;;;;;;;22.70;12.73;;;;;;;22.14;58.27;101499.56;4910398;29;20128;-62
2021/09/08 11:36:52;;;;;;;20.70;12.27;;;;;;;22.13;58.27;101498.75;4909997;29;20439;-64
2021/09/08 11:39:21;;;;;;;22.40;13.68;;;;;;;22.22;57.07;101495.16;4953826;28;20510;-69
2021/09/08 11:42:01;;;;;;;19.50;13.60;;;;;;;22.23;56.51;101477.38;4972342;28;20058;-64
2021/09/08 11:44:34;;;;;;;17.50;12.02;;;;;;;22.26;57.51;101480.28;4972285;28;20041;-64
2021/09/08 11:47:15;;;;;;;19.73;13.45;;;;;;;22.35;57.01;101482.25;4973334;28;20046;-64
2021/09/08 11:49:44;;;;;;;22.95;13.15;;;;;;;22.37;56.52;101479.94;4973053;28;20047;-65
2021/09/08 11:52:18;;;;;;;22.15;13.57;;;;;;;22.38;57.14;101474.06;4972702;28;20053;-61
2021/09/08 11:54:48;;;;;;;23.23;12.55;;;;;;;22.43;56.73;101479.41;4972163;28;20109;-64
2021/09/08 11:57:23;;;;;;;18.30;11.57;;;;;;;22.47;56.09;101480.41;4973008;28;20042;-64
2021/09/08 11:59:54;;;;;;;18.98;11.57;;;;;;;22.55;56.18;101473.97;4971359;28;20055;-64
2021/09/08 12:02:22;;;;;;;15.18;9.27;;;;;;;22.55;56.04;101471.19;4973191;28;20062;-63
2021/09/08 12:04:50;;;;;;;16.02;10.27;;;;;;;22.60;54.10;101481.31;4971712;28;20489;-64
2021/09/08 12:07:17;;;;;;;18.55;11.00;;;;;;;22.69;52.52;101470.16;4972441;28;20069;-64
2021/09/08 12:09:52;;;;;;;19.55;13.05;;;;;;;22.73;52.17;101469.16;4972830;28;20038;-62
2021/09/08 12:12:20;;;;;;;16.67;11.07;;;;;;;22.75;51.71;101468.81;4972958;28;20055;-61
2021/09/08 12:14:49;;;;;;;17.45;11.70;;;;;;;22.81;51.97;101458.34;4971535;28;20066;-62
2021/09/08 12:17:22;;;;;;;16.70;11.38;;;;;;;22.83;52.10;101464.38;4972860;28;20031;-64
2021/09/08 12:20:08;;;;;;;13.25;9.52;;;;;;;22.77;53.00;101460.97;4972404;28;20047;-63
2021/09/08 12:22:37;;;;;;;16.08;10.90;;;;;;;22.81;53.29;101455.56;4972409;28;20046;-63
2021/09/08 12:25:17;;;;;;;17.15;10.50;;;;;;;22.96;52.51;101447.44;4972217;28;20043;-63
2021/09/08 12:27:53;;;;;;;15.55;9.77;;;;;;;23.06;51.80;101439.88;4962902;28;20449;-64
2021/09/08 12:30:21;;;;;;;16.17;9.77;;;;;;;23.16;50.67;101445.88;4952722;28;20142;-62